createdAt,value
2017-05-16T00:00:27.957Z,1028.22
2017-05-16T00:01:08.457Z,1028.22
2017-05-16T00:01:48.930Z,1028.18
2017-05-16T00:02:29.373Z,1028.22
2017-05-16T00:03:09.971Z,1028.2
2017-05-16T00:03:50.453Z,1028.19
2017-05-16T00:04:30.963Z,1028.18
2017-05-16T00:05:11.489Z,1028.16
2017-05-16T00:05:51.964Z,1028.18
2017-05-16T00:06:32.442Z,1028.18
2017-05-16T00:07:12.944Z,1028.15
2017-05-16T00:07:53.432Z,1028.15
2017-05-16T00:08:33.897Z,1028.13
2017-05-16T00:09:14.351Z,1028.17
2017-05-16T00:09:54.921Z,1028.13
2017-05-16T00:10:35.392Z,1028.13
2017-05-16T00:11:16.120Z,1028.11
2017-05-16T00:11:56.577Z,1028.1
2017-05-16T00:12:37.046Z,1028.1
2017-05-16T00:13:17.535Z,1028.11
2017-05-16T00:13:58.052Z,1028.13
2017-05-16T00:14:38.541Z,1028.1
2017-05-16T00:15:18.990Z,1028.09
2017-05-16T00:15:59.500Z,1028.11
2017-05-16T00:16:40.067Z,1028.09
2017-05-16T00:17:20.521Z,1028.09
2017-05-16T00:18:00.987Z,1028.07
2017-05-16T00:18:41.510Z,1028.06
2017-05-16T00:19:22.025Z,1028.07
2017-05-16T00:20:02.499Z,1028.04
2017-05-16T00:20:43.022Z,1028.03
2017-05-16T00:21:23.509Z,1028.01
2017-05-16T00:22:03.968Z,1028.06
2017-05-16T00:22:44.480Z,1028.03
2017-05-16T00:23:25.023Z,1028.02
2017-05-16T00:24:05.487Z,1028.03
2017-05-16T00:24:45.950Z,1027.99
2017-05-16T00:25:26.449Z,1027.97
2017-05-16T00:26:06.975Z,1027.95
2017-05-16T00:26:47.425Z,1027.95
2017-05-16T00:27:27.948Z,1027.95
2017-05-16T00:28:08.428Z,1027.94
2017-05-16T00:28:48.861Z,1027.96
2017-05-16T00:29:29.413Z,1027.99
2017-05-16T00:30:09.846Z,1027.96
2017-05-16T00:30:50.324Z,1028
2017-05-16T00:31:30.857Z,1028
2017-05-16T00:32:11.322Z,1027.99
2017-05-16T00:32:51.838Z,1027.97
2017-05-16T00:33:32.325Z,1028.01
2017-05-16T00:34:12.794Z,1028
2017-05-16T00:34:53.316Z,1027.97
2017-05-16T00:35:33.808Z,1027.97
2017-05-16T00:36:14.299Z,1028.01
2017-05-16T00:36:54.782Z,1028
2017-05-16T00:37:35.226Z,1027.98
2017-05-16T00:38:15.755Z,1027.96
2017-05-16T00:38:56.229Z,1027.98
2017-05-16T00:39:36.750Z,1028.02
2017-05-16T00:40:17.214Z,1027.97
2017-05-16T00:40:57.684Z,1028.01
2017-05-16T00:41:38.146Z,1028
2017-05-16T00:42:18.617Z,1028.01
2017-05-16T00:42:59.094Z,1028.06
2017-05-16T00:43:39.619Z,1027.99
2017-05-16T00:44:20.046Z,1028.01
2017-05-16T00:45:00.557Z,1028
2017-05-16T00:45:40.999Z,1028.02
2017-05-16T00:46:21.534Z,1028.02
2017-05-16T00:47:01.980Z,1028.07
2017-05-16T00:47:42.485Z,1028.02
2017-05-16T00:48:22.930Z,1028
2017-05-16T00:49:03.437Z,1028.02
2017-05-16T00:49:43.934Z,1028.05
2017-05-16T00:50:24.378Z,1028.07
2017-05-16T00:51:04.895Z,1028.04
2017-05-16T00:51:45.363Z,1028.09
2017-05-16T00:52:25.877Z,1028.01
2017-05-16T00:53:06.390Z,1027.97
2017-05-16T00:53:46.872Z,1028.05
2017-05-16T00:54:27.372Z,1028.1
2017-05-16T00:55:07.862Z,1028.13
2017-05-16T00:55:48.348Z,1028.12
2017-05-16T00:56:28.867Z,1028.13
2017-05-16T00:57:09.313Z,1028.16
2017-05-16T00:57:49.796Z,1028.18
2017-05-16T00:58:30.272Z,1028.14
2017-05-16T00:59:11.359Z,1028.1
2017-05-16T00:59:51.839Z,1028.14
2017-05-16T01:00:32.330Z,1028.12
2017-05-16T01:01:12.767Z,1028.1
2017-05-16T01:01:53.239Z,1028.11
2017-05-16T01:02:33.726Z,1028.12
2017-05-16T01:03:14.261Z,1028.11
2017-05-16T01:03:54.788Z,1028.11
2017-05-16T01:04:35.304Z,1028.07
2017-05-16T01:05:15.785Z,1028.08
2017-05-16T01:05:56.285Z,1028.12
2017-05-16T01:06:36.778Z,1028.13
2017-05-16T01:07:17.228Z,1028.12
2017-05-16T01:07:57.692Z,1028.1
2017-05-16T01:08:38.207Z,1028.1
2017-05-16T01:09:18.677Z,1028.14
2017-05-16T01:09:59.136Z,1028.11
2017-05-16T01:10:39.647Z,1028.18
2017-05-16T01:11:20.225Z,1028.16
2017-05-16T01:12:00.684Z,1028.17
2017-05-16T01:12:41.199Z,1028.19
2017-05-16T01:13:21.637Z,1028.22
2017-05-16T01:14:02.149Z,1028.24
2017-05-16T01:14:42.694Z,1028.22
2017-05-16T01:15:23.115Z,1028.18
2017-05-16T01:16:03.563Z,1028.2
2017-05-16T01:16:44.069Z,1028.19
2017-05-16T01:17:24.550Z,1028.2
2017-05-16T01:18:05.058Z,1028.24
2017-05-16T01:18:45.543Z,1028.27
2017-05-16T01:19:26.047Z,1028.27
2017-05-16T01:20:06.492Z,1028.28
2017-05-16T01:20:46.949Z,1028.27
2017-05-16T01:21:27.419Z,1028.27
2017-05-16T01:22:07.878Z,1028.29
2017-05-16T01:22:48.386Z,1028.32
2017-05-16T01:23:28.933Z,1028.32
2017-05-16T01:24:09.338Z,1028.31
2017-05-16T01:24:49.873Z,1028.35
2017-05-16T01:25:30.358Z,1028.34
2017-05-16T01:26:10.874Z,1028.29
2017-05-16T01:26:51.422Z,1028.3
2017-05-16T01:27:31.818Z,1028.32
2017-05-16T01:28:12.326Z,1028.3
2017-05-16T01:28:52.828Z,1028.33
2017-05-16T01:29:33.275Z,1028.31
2017-05-16T01:30:13.777Z,1028.34
2017-05-16T01:30:54.274Z,1028.32
2017-05-16T01:31:34.771Z,1028.3
2017-05-16T01:32:15.233Z,1028.3
2017-05-16T01:32:55.701Z,1028.3
2017-05-16T01:33:36.311Z,1028.31
2017-05-16T01:34:16.792Z,1028.31
2017-05-16T01:34:57.341Z,1028.31
2017-05-16T01:35:37.858Z,1028.26
2017-05-16T01:36:18.330Z,1028.26
2017-05-16T01:36:58.863Z,1028.28
2017-05-16T01:37:39.341Z,1028.29
2017-05-16T01:38:19.770Z,1028.25
2017-05-16T01:39:00.246Z,1028.28
2017-05-16T01:39:40.749Z,1028.25
2017-05-16T01:40:21.258Z,1028.25
2017-05-16T01:41:01.714Z,1028.19
2017-05-16T01:41:42.186Z,1028.21
2017-05-16T01:42:22.662Z,1028.21
2017-05-16T01:43:03.158Z,1028.19
2017-05-16T01:43:43.637Z,1028.2
2017-05-16T01:44:24.124Z,1028.18
2017-05-16T01:45:04.626Z,1028.23
2017-05-16T01:45:45.132Z,1028.19
2017-05-16T01:46:25.586Z,1028.16
2017-05-16T01:47:06.054Z,1028.17
2017-05-16T01:47:46.598Z,1028.15
2017-05-16T01:48:27.020Z,1028.15
2017-05-16T01:49:07.492Z,1028.16
2017-05-16T01:49:47.956Z,1028.14
2017-05-16T01:50:28.439Z,1028.15
2017-05-16T01:51:08.904Z,1028.16
2017-05-16T01:51:49.421Z,1028.17
2017-05-16T01:52:29.904Z,1028.15
2017-05-16T01:53:10.406Z,1028.12
2017-05-16T01:53:50.886Z,1028.13
2017-05-16T01:54:31.363Z,1028.07
2017-05-16T01:55:11.847Z,1028.07
2017-05-16T01:55:52.301Z,1028.03
2017-05-16T01:56:32.744Z,1028.05
2017-05-16T01:57:13.265Z,1028.13
2017-05-16T01:57:53.740Z,1028.12
2017-05-16T01:58:34.253Z,1028.15
2017-05-16T01:59:14.748Z,1028.08
2017-05-16T01:59:55.189Z,1028.07
2017-05-16T02:00:35.697Z,1028.06
2017-05-16T02:01:16.235Z,1028.01
2017-05-16T02:01:56.679Z,1028.03
2017-05-16T02:02:37.198Z,1028.02
2017-05-16T02:03:17.642Z,1028.03
2017-05-16T02:03:58.150Z,1028.05
2017-05-16T02:04:38.659Z,1028.04
2017-05-16T02:05:19.128Z,1028.02
2017-05-16T02:05:59.583Z,1028.04
2017-05-16T02:06:40.118Z,1028
2017-05-16T02:07:20.602Z,1028.03
2017-05-16T02:08:01.083Z,1027.99
2017-05-16T02:08:41.586Z,1028.01
2017-05-16T02:09:22.066Z,1028.01
2017-05-16T02:10:02.583Z,1028.01
2017-05-16T02:10:43.148Z,1028
2017-05-16T02:11:23.614Z,1028
2017-05-16T02:12:04.114Z,1027.95
2017-05-16T02:12:44.586Z,1027.94
2017-05-16T02:13:25.085Z,1027.95
2017-05-16T02:14:05.558Z,1027.91
2017-05-16T02:14:46.070Z,1027.92
2017-05-16T02:15:26.523Z,1027.94
2017-05-16T02:16:07.021Z,1027.89
2017-05-16T02:16:47.503Z,1027.92
2017-05-16T02:17:27.971Z,1027.91
2017-05-16T02:18:08.485Z,1027.91
2017-05-16T02:18:48.910Z,1027.87
2017-05-16T02:19:29.405Z,1027.87
2017-05-16T02:20:09.927Z,1027.88
2017-05-16T02:20:50.399Z,1027.85
2017-05-16T02:21:30.880Z,1027.89
2017-05-16T02:22:11.369Z,1027.9
2017-05-16T02:22:51.897Z,1027.87
2017-05-16T02:23:32.368Z,1027.86
2017-05-16T02:24:12.854Z,1027.84
2017-05-16T02:24:53.363Z,1027.82
2017-05-16T02:25:33.760Z,1027.86
2017-05-16T02:26:14.256Z,1027.84
2017-05-16T02:26:54.734Z,1027.84
2017-05-16T02:27:35.211Z,1027.82
2017-05-16T02:28:15.726Z,1027.83
2017-05-16T02:28:56.216Z,1027.83
2017-05-16T02:29:36.685Z,1027.85
2017-05-16T02:30:17.146Z,1027.81
2017-05-16T02:30:57.586Z,1027.84
2017-05-16T02:31:38.115Z,1027.85
2017-05-16T02:32:18.611Z,1027.84
2017-05-16T02:32:59.032Z,1027.8
2017-05-16T02:33:39.523Z,1027.81
2017-05-16T02:34:20.043Z,1027.77
2017-05-16T02:35:00.531Z,1027.78
2017-05-16T02:35:41.040Z,1027.81
2017-05-16T02:36:21.546Z,1027.8
2017-05-16T02:37:02.048Z,1027.77
2017-05-16T02:37:42.547Z,1027.79
2017-05-16T02:38:23.049Z,1027.77
2017-05-16T02:39:03.523Z,1027.77
2017-05-16T02:39:43.981Z,1027.76
2017-05-16T02:40:24.446Z,1027.74
2017-05-16T02:41:05.001Z,1027.79
2017-05-16T02:41:45.459Z,1027.73
2017-05-16T02:42:25.967Z,1027.77
2017-05-16T02:43:06.388Z,1027.76
2017-05-16T02:43:46.870Z,1027.73
2017-05-16T02:44:27.369Z,1027.77
2017-05-16T02:45:07.817Z,1027.82
2017-05-16T02:45:48.306Z,1027.81
2017-05-16T02:46:28.780Z,1027.8
2017-05-16T02:47:09.247Z,1027.8
2017-05-16T02:47:49.769Z,1027.77
2017-05-16T02:48:30.271Z,1027.8
2017-05-16T02:49:10.764Z,1027.83
2017-05-16T02:49:51.269Z,1027.81
2017-05-16T02:50:31.780Z,1027.84
2017-05-16T02:51:12.250Z,1027.83
2017-05-16T02:51:52.720Z,1027.84
2017-05-16T02:52:33.210Z,1027.8
2017-05-16T02:53:13.730Z,1027.81
2017-05-16T02:53:54.192Z,1027.79
2017-05-16T02:54:34.676Z,1027.85
2017-05-16T02:55:15.149Z,1027.79
2017-05-16T02:55:55.615Z,1027.81
2017-05-16T02:56:36.132Z,1027.82
2017-05-16T02:57:16.610Z,1027.85
2017-05-16T02:57:57.102Z,1027.8
2017-05-16T02:58:37.580Z,1027.84
2017-05-16T02:59:18.100Z,1027.83
2017-05-16T02:59:58.579Z,1027.84
2017-05-16T03:00:39.088Z,1027.84
2017-05-16T03:01:19.540Z,1027.83
2017-05-16T03:02:00.017Z,1027.83
2017-05-16T03:02:40.495Z,1027.83
2017-05-16T03:03:20.992Z,1027.85
2017-05-16T03:04:01.484Z,1027.86
2017-05-16T03:04:41.965Z,1027.83
2017-05-16T03:05:22.445Z,1027.79
2017-05-16T03:06:02.914Z,1027.78
2017-05-16T03:06:43.455Z,1027.81
2017-05-16T03:07:23.900Z,1027.74
2017-05-16T03:08:04.342Z,1027.8
2017-05-16T03:08:44.852Z,1027.81
2017-05-16T03:09:25.364Z,1027.78
2017-05-16T03:10:05.863Z,1027.79
2017-05-16T03:10:46.313Z,1027.79
2017-05-16T03:11:26.768Z,1027.79
2017-05-16T03:12:07.223Z,1027.79
2017-05-16T03:12:47.740Z,1027.78
2017-05-16T03:13:28.206Z,1027.8
2017-05-16T03:14:08.707Z,1027.83
2017-05-16T03:14:49.230Z,1027.82
2017-05-16T03:15:29.704Z,1027.8
2017-05-16T03:16:10.223Z,1027.81
2017-05-16T03:16:50.712Z,1027.82
2017-05-16T03:17:31.216Z,1027.84
2017-05-16T03:18:11.736Z,1027.79
2017-05-16T03:18:52.207Z,1027.81
2017-05-16T03:19:32.646Z,1027.8
2017-05-16T03:20:13.161Z,1027.85
2017-05-16T03:20:53.631Z,1027.79
2017-05-16T03:21:34.098Z,1027.84
2017-05-16T03:22:14.585Z,1027.84
2017-05-16T03:22:55.029Z,1027.79
2017-05-16T03:23:35.512Z,1027.81
2017-05-16T03:24:16.109Z,1027.81
2017-05-16T03:24:56.561Z,1027.79
2017-05-16T03:25:37.067Z,1027.82
2017-05-16T03:26:17.578Z,1027.8
2017-05-16T03:26:58.017Z,1027.8
2017-05-16T03:27:38.541Z,1027.78
2017-05-16T03:28:18.988Z,1027.78
2017-05-16T03:28:59.472Z,1027.82
2017-05-16T03:29:39.979Z,1027.76
2017-05-16T03:30:20.474Z,1027.75
2017-05-16T03:31:01.164Z,1027.8
2017-05-16T03:31:41.733Z,1027.79
2017-05-16T03:32:22.175Z,1027.8
2017-05-16T03:33:02.702Z,1027.78
2017-05-16T03:33:43.120Z,1027.82
2017-05-16T03:34:23.592Z,1027.79
2017-05-16T03:35:04.088Z,1027.83
2017-05-16T03:35:44.554Z,1027.83
2017-05-16T03:36:25.068Z,1027.85
2017-05-16T03:37:05.608Z,1027.85
2017-05-16T03:37:46.027Z,1027.77
2017-05-16T03:38:26.533Z,1027.84
2017-05-16T03:39:07.033Z,1027.83
2017-05-16T03:39:47.531Z,1027.79
2017-05-16T03:40:28.017Z,1027.81
2017-05-16T03:41:08.506Z,1027.79
2017-05-16T03:41:48.920Z,1027.83
2017-05-16T03:42:29.429Z,1027.82
2017-05-16T03:43:09.958Z,1027.8
2017-05-16T03:43:50.385Z,1027.8
2017-05-16T03:44:30.865Z,1027.84
2017-05-16T03:45:11.332Z,1027.82
2017-05-16T03:45:51.851Z,1027.81
2017-05-16T03:46:32.390Z,1027.82
2017-05-16T03:47:12.844Z,1027.8
2017-05-16T03:47:53.451Z,1027.77
2017-05-16T03:48:33.912Z,1027.78
2017-05-16T03:49:14.376Z,1027.75
2017-05-16T03:49:54.935Z,1027.77
2017-05-16T03:50:35.327Z,1027.77
2017-05-16T03:51:15.816Z,1027.74
2017-05-16T03:51:56.297Z,1027.73
2017-05-16T03:52:36.792Z,1027.75
2017-05-16T03:53:17.278Z,1027.78
2017-05-16T03:53:57.743Z,1027.76
2017-05-16T03:54:38.250Z,1027.74
2017-05-16T03:55:18.730Z,1027.72
2017-05-16T03:55:59.211Z,1027.73
2017-05-16T03:56:39.711Z,1027.69
2017-05-16T03:57:20.183Z,1027.69
2017-05-16T03:58:00.683Z,1027.69
2017-05-16T03:58:41.200Z,1027.72
2017-05-16T03:59:21.674Z,1027.67
2017-05-16T04:00:02.204Z,1027.67
2017-05-16T04:00:42.706Z,1027.64
2017-05-16T04:01:23.171Z,1027.68
2017-05-16T04:02:03.651Z,1027.66
2017-05-16T04:02:44.141Z,1027.66
2017-05-16T04:03:24.624Z,1027.64
2017-05-16T04:04:05.209Z,1027.64
2017-05-16T04:04:45.643Z,1027.66
2017-05-16T04:05:26.124Z,1027.65
2017-05-16T04:06:06.630Z,1027.65
2017-05-16T04:06:47.108Z,1027.68
2017-05-16T04:07:27.570Z,1027.67
2017-05-16T04:08:08.064Z,1027.66
2017-05-16T04:08:48.595Z,1027.68
2017-05-16T04:09:29.094Z,1027.64
2017-05-16T04:10:09.563Z,1027.71
2017-05-16T04:10:50.039Z,1027.66
2017-05-16T04:11:30.536Z,1027.71
2017-05-16T04:12:11.014Z,1027.7
2017-05-16T04:12:51.499Z,1027.67
2017-05-16T04:13:32.014Z,1027.66
2017-05-16T04:14:12.531Z,1027.65
2017-05-16T04:14:53.094Z,1027.62
2017-05-16T04:15:33.562Z,1027.66
2017-05-16T04:16:14.032Z,1027.65
2017-05-16T04:16:54.505Z,1027.69
2017-05-16T04:17:35.008Z,1027.65
2017-05-16T04:18:15.484Z,1027.63
2017-05-16T04:18:55.896Z,1027.65
2017-05-16T04:19:36.576Z,1027.65
2017-05-16T04:20:17.083Z,1027.66
2017-05-16T04:20:57.561Z,1027.66
2017-05-16T04:21:38.152Z,1027.63
2017-05-16T04:22:18.633Z,1027.65
2017-05-16T04:22:59.130Z,1027.62
2017-05-16T04:23:39.619Z,1027.6
2017-05-16T04:24:20.184Z,1027.58
2017-05-16T04:25:00.673Z,1027.59
2017-05-16T04:25:41.173Z,1027.54
2017-05-16T04:26:21.629Z,1027.58
2017-05-16T04:27:02.205Z,1027.56
2017-05-16T04:27:42.690Z,1027.58
2017-05-16T04:28:23.177Z,1027.56
2017-05-16T04:29:03.652Z,1027.55
2017-05-16T04:29:44.145Z,1027.53
2017-05-16T04:30:24.609Z,1027.57
2017-05-16T04:31:05.157Z,1027.59
2017-05-16T04:31:45.686Z,1027.53
2017-05-16T04:32:26.219Z,1027.54
2017-05-16T04:33:06.724Z,1027.56
2017-05-16T04:33:47.192Z,1027.57
2017-05-16T04:34:27.974Z,1027.62
2017-05-16T04:35:08.502Z,1027.56
2017-05-16T04:35:49.172Z,1027.55
2017-05-16T04:36:29.717Z,1027.57
2017-05-16T04:37:10.384Z,1027.62
2017-05-16T04:37:51.039Z,1027.58
2017-05-16T04:38:31.548Z,1027.57
2017-05-16T04:39:12.031Z,1027.61
2017-05-16T04:39:52.646Z,1027.61
2017-05-16T04:40:33.174Z,1027.58
2017-05-16T04:41:13.637Z,1027.59
2017-05-16T04:41:54.144Z,1027.62
2017-05-16T04:42:34.577Z,1027.63
2017-05-16T04:43:15.098Z,1027.64
2017-05-16T04:43:55.579Z,1027.63
2017-05-16T04:44:36.084Z,1027.6
2017-05-16T04:45:16.611Z,1027.62
2017-05-16T04:45:57.090Z,1027.62
2017-05-16T04:46:37.571Z,1027.62
2017-05-16T04:47:18.072Z,1027.59
2017-05-16T04:47:58.570Z,1027.58
2017-05-16T04:48:39.034Z,1027.59
2017-05-16T04:49:19.531Z,1027.54
2017-05-16T04:50:00.007Z,1027.56
2017-05-16T04:50:40.485Z,1027.58
2017-05-16T04:51:21.024Z,1027.56
2017-05-16T04:52:01.575Z,1027.61
2017-05-16T04:52:41.974Z,1027.57
2017-05-16T04:53:22.458Z,1027.56
2017-05-16T04:54:02.933Z,1027.56
2017-05-16T04:54:43.417Z,1027.55
2017-05-16T04:55:23.909Z,1027.54
2017-05-16T04:56:04.469Z,1027.57
2017-05-16T04:56:44.917Z,1027.57
2017-05-16T04:57:25.447Z,1027.55
2017-05-16T04:58:05.930Z,1027.53
2017-05-16T04:58:46.390Z,1027.51
2017-05-16T04:59:26.913Z,1027.51
2017-05-16T05:00:07.535Z,1027.51
2017-05-16T05:00:48.038Z,1027.53
2017-05-16T05:01:28.526Z,1027.51
2017-05-16T05:02:08.963Z,1027.51
2017-05-16T05:02:49.513Z,1027.52
2017-05-16T05:03:30.017Z,1027.49
2017-05-16T05:04:10.473Z,1027.43
2017-05-16T05:04:50.982Z,1027.43
2017-05-16T05:05:32.356Z,1027.44
2017-05-16T05:06:12.852Z,1027.44
2017-05-16T05:06:53.325Z,1027.43
2017-05-16T05:07:33.798Z,1027.4
2017-05-16T05:08:14.292Z,1027.41
2017-05-16T05:08:54.765Z,1027.42
2017-05-16T05:09:35.317Z,1027.41
2017-05-16T05:10:15.759Z,1027.41
2017-05-16T05:10:56.298Z,1027.41
2017-05-16T05:11:36.810Z,1027.42
2017-05-16T05:12:17.329Z,1027.39
2017-05-16T05:12:57.829Z,1027.39
2017-05-16T05:13:38.337Z,1027.4
2017-05-16T05:14:18.866Z,1027.38
2017-05-16T05:14:59.439Z,1027.38
2017-05-16T05:15:39.946Z,1027.41
2017-05-16T05:16:20.439Z,1027.44
2017-05-16T05:17:00.950Z,1027.4
2017-05-16T05:17:41.465Z,1027.44
2017-05-16T05:18:21.912Z,1027.4
2017-05-16T05:19:02.497Z,1027.4
2017-05-16T05:19:42.933Z,1027.42
2017-05-16T05:20:23.413Z,1027.42
2017-05-16T05:21:03.849Z,1027.43
2017-05-16T05:21:44.368Z,1027.43
2017-05-16T05:22:24.902Z,1027.4
2017-05-16T05:23:05.371Z,1027.42
2017-05-16T05:23:45.888Z,1027.38
2017-05-16T05:24:26.382Z,1027.41
2017-05-16T05:25:06.903Z,1027.38
2017-05-16T05:25:47.373Z,1027.4
2017-05-16T05:26:27.831Z,1027.43
2017-05-16T05:27:08.370Z,1027.44
2017-05-16T05:27:48.819Z,1027.43
2017-05-16T05:28:29.406Z,1027.42
2017-05-16T05:29:09.800Z,1027.46
2017-05-16T05:29:50.301Z,1027.46
2017-05-16T05:30:30.762Z,1027.45
2017-05-16T05:31:11.454Z,1027.42
2017-05-16T05:31:51.993Z,1027.42
2017-05-16T05:32:32.514Z,1027.45
2017-05-16T05:33:12.977Z,1027.44
2017-05-16T05:33:53.474Z,1027.42
2017-05-16T05:34:34.008Z,1027.41
2017-05-16T05:35:14.464Z,1027.41
2017-05-16T05:35:54.947Z,1027.43
2017-05-16T05:36:35.472Z,1027.42
2017-05-16T05:37:15.867Z,1027.37
2017-05-16T05:37:56.352Z,1027.38
2017-05-16T05:38:36.966Z,1027.38
2017-05-16T05:39:17.413Z,1027.37
2017-05-16T05:39:57.873Z,1027.4
2017-05-16T05:40:38.337Z,1027.41
2017-05-16T05:41:18.907Z,1027.42
2017-05-16T05:41:59.406Z,1027.43
2017-05-16T05:42:39.888Z,1027.43
2017-05-16T05:43:20.412Z,1027.44
2017-05-16T05:44:00.895Z,1027.44
2017-05-16T05:44:41.370Z,1027.44
2017-05-16T05:45:21.863Z,1027.45
2017-05-16T05:46:02.374Z,1027.45
2017-05-16T05:46:42.871Z,1027.5
2017-05-16T05:47:23.331Z,1027.49
2017-05-16T05:48:04.666Z,1027.54
2017-05-16T05:48:45.331Z,1027.48
2017-05-16T05:49:25.852Z,1027.45
2017-05-16T05:50:06.339Z,1027.37
2017-05-16T05:50:47.047Z,1027.49
2017-05-16T05:51:27.504Z,1027.44
2017-05-16T05:52:07.961Z,1027.45
2017-05-16T05:52:48.449Z,1027.44
2017-05-16T05:53:28.971Z,1027.42
2017-05-16T05:54:09.480Z,1027.43
2017-05-16T05:54:49.964Z,1027.51
2017-05-16T05:55:30.465Z,1027.55
2017-05-16T05:56:10.965Z,1027.46
2017-05-16T05:56:51.451Z,1027.47
2017-05-16T05:57:31.981Z,1027.44
2017-05-16T05:58:12.448Z,1027.45
2017-05-16T05:58:52.956Z,1027.48
2017-05-16T05:59:33.487Z,1027.48
2017-05-16T06:00:13.908Z,1027.44
2017-05-16T06:00:54.601Z,1027.47
2017-05-16T06:01:35.066Z,1027.51
2017-05-16T06:02:15.530Z,1027.47
2017-05-16T06:02:56.086Z,1027.48
2017-05-16T06:03:36.766Z,1027.5
2017-05-16T06:04:17.275Z,1027.46
2017-05-16T06:04:57.817Z,1027.43
2017-05-16T06:05:38.265Z,1027.46
2017-05-16T06:06:18.765Z,1027.47
2017-05-16T06:06:59.292Z,1027.44
2017-05-16T06:07:39.754Z,1027.46
2017-05-16T06:08:20.208Z,1027.45
2017-05-16T06:09:00.694Z,1027.45
2017-05-16T06:09:41.208Z,1027.45
2017-05-16T06:10:21.760Z,1027.45
2017-05-16T06:11:02.522Z,1027.46
2017-05-16T06:11:44.061Z,1027.47
2017-05-16T06:12:25.233Z,1027.46
2017-05-16T06:13:05.989Z,1027.42
2017-05-16T06:13:46.899Z,1027.49
2017-05-16T06:14:27.593Z,1027.43
2017-05-16T06:15:08.137Z,1027.47
2017-05-16T06:15:48.588Z,1027.46
2017-05-16T06:16:29.119Z,1027.51
2017-05-16T06:18:47.794Z,1027.55
2017-05-16T06:19:36.335Z,1027.56
2017-05-16T06:20:25.024Z,1027.56
2017-05-16T06:21:13.691Z,1027.52
2017-05-16T06:22:02.618Z,1027.54
2017-05-16T06:22:51.085Z,1027.53
2017-05-16T06:23:39.689Z,1027.53
2017-05-16T06:24:28.373Z,1027.52
2017-05-16T06:25:18.836Z,1027.52
2017-05-16T06:26:09.545Z,1027.48
2017-05-16T06:26:59.463Z,1027.47
2017-05-16T06:27:51.453Z,1027.46
2017-05-16T06:28:48.188Z,1027.51
2017-05-16T06:29:40.542Z,1027.52
2017-05-16T06:30:39.021Z,1027.51
2017-05-16T06:31:35.622Z,1027.5
2017-05-16T06:32:23.739Z,1027.46
2017-05-16T06:33:13.018Z,1027.45
2017-05-16T06:34:01.103Z,1027.43
2017-05-16T06:34:50.647Z,1027.45
2017-05-16T06:35:37.181Z,1027.44
2017-05-16T06:36:24.646Z,1027.48
2017-05-16T06:37:13.460Z,1027.46
2017-05-16T06:38:02.251Z,1027.52
2017-05-16T06:38:51.379Z,1027.48
2017-05-16T06:39:39.977Z,1027.54
2017-05-16T06:42:19.483Z,1027.51
2017-05-16T06:43:05.025Z,1027.56
2017-05-16T06:43:46.978Z,1027.57
2017-05-16T06:44:27.467Z,1027.54
2017-05-16T06:45:07.967Z,1027.53
2017-05-16T06:45:48.448Z,1027.54
2017-05-16T06:46:29.806Z,1027.57
2017-05-16T06:47:13.207Z,1027.53
2017-05-16T06:47:54.448Z,1027.56
2017-05-16T06:48:35.221Z,1027.55
2017-05-16T06:49:17.497Z,1027.55
2017-05-16T06:50:01.833Z,1027.51
2017-05-16T06:50:43.709Z,1027.52
2017-05-16T06:51:24.348Z,1027.53
2017-05-16T06:52:09.876Z,1027.52
2017-05-16T06:52:53.878Z,1027.5
2017-05-16T06:53:50.783Z,1027.47
2017-05-16T06:54:32.842Z,1027.49
2017-05-16T06:55:15.736Z,1027.46
2017-05-16T06:55:58.565Z,1027.43
2017-05-16T06:56:43.002Z,1027.47
2017-05-16T06:57:28.502Z,1027.46
2017-05-16T06:58:09.852Z,1027.39
2017-05-16T06:58:51.215Z,1027.45
2017-05-16T06:59:33.237Z,1027.41
2017-05-16T07:00:15.113Z,1027.41
2017-05-16T07:00:55.779Z,1027.41
2017-05-16T07:01:36.733Z,1027.45
2017-05-16T07:02:23.531Z,1027.4
2017-05-16T07:05:32.937Z,1027.38
2017-05-16T07:06:21.142Z,1027.41
2017-05-16T07:07:09.636Z,1027.41
2017-05-16T07:07:56.736Z,1027.45
2017-05-16T07:08:46.952Z,1027.42
2017-05-16T07:09:35.788Z,1027.37
2017-05-16T07:10:26.070Z,1027.38
2017-05-16T07:11:15.849Z,1027.4
2017-05-16T07:12:06.553Z,1027.41
2017-05-16T07:14:37.681Z,1027.47
2017-05-16T07:15:31.346Z,1027.46
2017-05-16T07:17:24.937Z,1027.45
2017-05-16T07:18:14.505Z,1027.42
2017-05-16T07:19:02.945Z,1027.39
2017-05-16T07:19:52.200Z,1027.35
2017-05-16T07:20:41.107Z,1027.33
2017-05-16T07:21:33.727Z,1027.36
2017-05-16T07:22:23.983Z,1027.39
2017-05-16T07:23:14.117Z,1027.4
2017-05-16T07:24:02.549Z,1027.39
2017-05-16T07:24:52.069Z,1027.39
2017-05-16T07:25:41.169Z,1027.37
2017-05-16T07:26:34.960Z,1027.35
2017-05-16T07:27:27.934Z,1027.38
2017-05-16T07:29:18.305Z,1027.31
2017-05-16T07:30:07.334Z,1027.29
2017-05-16T07:30:55.879Z,1027.27
2017-05-16T07:31:45.337Z,1027.25
2017-05-16T07:32:34.732Z,1027.22
2017-05-16T07:33:23.166Z,1027.19
2017-05-16T07:34:15.623Z,1027.3
2017-05-16T07:35:04.762Z,1027.27
2017-05-16T07:35:54.483Z,1027.24
2017-05-16T07:36:46.652Z,1027.25
2017-05-16T07:37:32.873Z,1027.27
2017-05-16T07:38:13.868Z,1027.2
2017-05-16T07:38:56.151Z,1027.22
2017-05-16T07:39:37.314Z,1027.21
2017-05-16T07:40:18.429Z,1027.21
2017-05-16T07:40:59.425Z,1027.2
2017-05-16T07:41:41.556Z,1027.19
2017-05-16T07:42:22.814Z,1027.19
2017-05-16T07:43:03.941Z,1027.22
2017-05-16T07:43:44.474Z,1027.18
2017-05-16T07:44:25.903Z,1027.18
2017-05-16T07:45:06.435Z,1027.19
2017-05-16T07:45:47.803Z,1027.19
2017-05-16T07:46:28.198Z,1027.18
2017-05-16T07:47:08.707Z,1027.17
2017-05-16T07:47:50.255Z,1027.13
2017-05-16T07:48:30.641Z,1027.17
2017-05-16T07:49:13.665Z,1027.17
2017-05-16T07:49:55.817Z,1027.15
2017-05-16T07:50:40.418Z,1027.22
2017-05-16T07:51:25.155Z,1027.2
2017-05-16T07:52:05.687Z,1027.12
2017-05-16T07:52:46.175Z,1027.09
2017-05-16T07:55:06.258Z,1027.19
2017-05-16T07:55:58.189Z,1027.19
2017-05-16T07:56:56.264Z,1027.17
2017-05-16T07:57:45.898Z,1027.21
2017-05-16T07:58:33.314Z,1027.16
2017-05-16T07:59:22.626Z,1027.17
2017-05-16T08:00:11.833Z,1027.14
2017-05-16T08:01:01.033Z,1027.11
2017-05-16T08:01:49.371Z,1027.12
2017-05-16T08:02:37.802Z,1027.13
2017-05-16T08:03:26.652Z,1027.14
2017-05-16T08:04:08.931Z,1027.2
2017-05-16T08:04:49.509Z,1027.09
2017-05-16T08:05:32.875Z,1027.1
2017-05-16T08:06:13.432Z,1027.09
2017-05-16T08:06:53.947Z,1027.07
2017-05-16T08:07:34.533Z,1027.11
2017-05-16T08:08:15.205Z,1027.09
2017-05-16T08:08:55.708Z,1027.1
2017-05-16T08:09:39.023Z,1027.08
2017-05-16T08:10:19.513Z,1027.06
2017-05-16T08:10:59.979Z,1027.09
2017-05-16T08:11:41.201Z,1027.09
2017-05-16T08:12:21.739Z,1027.09
2017-05-16T08:13:02.173Z,1027.07
2017-05-16T08:13:42.714Z,1027.06
2017-05-16T08:14:24.359Z,1027.09
2017-05-16T08:15:04.862Z,1027.07
2017-05-16T08:15:46.997Z,1027.05
2017-05-16T08:16:28.157Z,1027.04
2017-05-16T08:17:10.570Z,1027.02
2017-05-16T08:17:51.722Z,1027.04
2017-05-16T08:18:32.253Z,1027.04
2017-05-16T08:20:18.212Z,1027.01
2017-05-16T08:21:07.413Z,1027.01
2017-05-16T08:21:57.299Z,1027.03
2017-05-16T08:22:46.749Z,1027.01
2017-05-16T08:23:42.388Z,1026.99
2017-05-16T08:24:31.344Z,1026.98
2017-05-16T08:25:20.643Z,1026.99
2017-05-16T08:27:52.922Z,1026.98
2017-05-16T08:29:59.597Z,1026.98
2017-05-16T08:30:47.319Z,1027
2017-05-16T08:31:40.005Z,1026.95
2017-05-16T08:32:32.966Z,1026.97
2017-05-16T08:33:22.700Z,1026.94
2017-05-16T08:34:13.351Z,1026.98
2017-05-16T08:36:45.565Z,1026.94
2017-05-16T08:37:42.751Z,1026.9
2017-05-16T08:40:10.917Z,1026.95
2017-05-16T08:57:05.183Z,1026.85
2017-05-16T08:57:54.254Z,1026.87
2017-05-16T08:58:43.662Z,1026.85
2017-05-16T08:59:33.531Z,1026.88
2017-05-16T09:00:22.012Z,1026.93
2017-05-16T09:01:10.551Z,1026.89
2017-05-16T09:01:59.451Z,1026.92
2017-05-16T09:02:50.207Z,1026.9
2017-05-16T09:03:41.953Z,1026.9